sensor_id;sensor_type;location;lat;lon;timestamp;temperature;humidity
16441;DHT22;8330;-33.858;151.184;2023-05-10T00:00:00;16.70;99.90
16441;DHT22;8330;-33.858;151.184;2023-05-10T00:02:32;16.80;99.90
16441;DHT22;8330;-33.858;151.184;2023-05-10T00:05:04;16.90;99.90
16441;DHT22;8330;-33.858;151.184;2023-05-10T00:07:37;17.10;99.90
16441;DHT22;8330;-33.858;151.184;2023-05-10T00:10:09;17.10;99.90
16441;DHT22;8330;-33.858;151.184;2023-05-10T00:12:40;17.20;99.90
16441;DHT22;8330;-33.858;151.184;2023-05-10T02:36:59;20.40;99.60
16441;DHT22;8330;-33.858;151.184;2023-05-10T02:39:47;20.40;99.70
16441;DHT22;8330;-33.858;151.184;2023-05-10T02:42:35;20.40;98.70
16441;DHT22;8330;-33.858;151.184;2023-05-10T02:45:25;20.40;98.90
16441;DHT22;8330;-33.858;151.184;2023-05-10T02:48:14;20.60;98.90
16441;DHT22;8330;-33.858;151.184;2023-05-10T02:51:04;20.50;98.00
16441;DHT22;8330;-33.858;151.184;2023-05-10T02:53:54;20.50;97.90
16441;DHT22;8330;-33.858;151.184;2023-05-10T02:56:50;20.60;98.00
16441;DHT22;8330;-33.858;151.184;2023-05-10T02:59:37;20.70;98.20
16441;DHT22;8330;-33.858;151.184;2023-05-10T03:02:24;20.70;97.90
16441;DHT22;8330;-33.858;151.184;2023-05-10T03:05:11;20.80;98.00
16441;DHT22;8330;-33.858;151.184;2023-05-10T03:07:58;20.80;98.30
16441;DHT22;8330;-33.858;151.184;2023-05-10T03:10:54;20.80;98.20
16441;DHT22;8330;-33.858;151.184;2023-05-10T03:13:48;20.80;97.60
16441;DHT22;8330;-33.858;151.184;2023-05-10T03:16:44;20.80;98.10
16441;DHT22;8330;-33.858;151.184;2023-05-10T03:19:35;20.80;97.90
16441;DHT22;8330;-33.858;151.184;2023-05-10T03:22:26;20.80;98.30
16441;DHT22;8330;-33.858;151.184;2023-05-10T03:25:16;20.70;97.20
16441;DHT22;8330;-33.858;151.184;2023-05-10T03:28:07;20.70;97.50
16441;DHT22;8330;-33.858;151.184;2023-05-10T03:30:55;20.70;96.90
16441;DHT22;8330;-33.858;151.184;2023-05-10T03:33:47;20.60;97.50
16441;DHT22;8330;-33.858;151.184;2023-05-10T03:36:34;20.50;97.50
16441;DHT22;8330;-33.858;151.184;2023-05-10T03:39:21;20.50;98.10
16441;DHT22;8330;-33.858;151.184;2023-05-10T03:42:08;20.60;98.40
16441;DHT22;8330;-33.858;151.184;2023-05-10T03:44:57;20.50;98.60
16441;DHT22;8330;-33.858;151.184;2023-05-10T03:47:44;20.60;97.90
16441;DHT22;8330;-33.858;151.184;2023-05-10T03:50:31;20.50;99.20
16441;DHT22;8330;-33.858;151.184;2023-05-10T03:53:17;20.50;98.80
16441;DHT22;8330;-33.858;151.184;2023-05-10T03:56:04;20.50;98.70
16441;DHT22;8330;-33.858;151.184;2023-05-10T03:58:51;20.40;99.00
16441;DHT22;8330;-33.858;151.184;2023-05-10T04:01:40;20.40;99.50
16441;DHT22;8330;-33.858;151.184;2023-05-10T04:04:27;20.30;98.30
16441;DHT22;8330;-33.858;151.184;2023-05-10T04:07:14;20.30;97.90
16441;DHT22;8330;-33.858;151.184;2023-05-10T04:10:00;20.30;98.20
16441;DHT22;8330;-33.858;151.184;2023-05-10T04:12:47;20.30;99.00
16441;DHT22;8330;-33.858;151.184;2023-05-10T04:15:34;20.20;98.50
16441;DHT22;8330;-33.858;151.184;2023-05-10T04:18:23;20.30;98.60
16441;DHT22;8330;-33.858;151.184;2023-05-10T04:21:13;20.30;98.60
16441;DHT22;8330;-33.858;151.184;2023-05-10T04:23:59;20.30;98.40
16441;DHT22;8330;-33.858;151.184;2023-05-10T04:26:46;20.30;99.20
16441;DHT22;8330;-33.858;151.184;2023-05-10T04:29:33;20.20;99.90
16441;DHT22;8330;-33.858;151.184;2023-05-10T04:32:20;20.10;99.90
16441;DHT22;8330;-33.858;151.184;2023-05-10T04:35:09;20.00;99.90
16441;DHT22;8330;-33.858;151.184;2023-05-10T04:37:56;20.00;99.90
16441;DHT22;8330;-33.858;151.184;2023-05-10T04:40:43;20.00;99.90
16441;DHT22;8330;-33.858;151.184;2023-05-10T04:43:30;19.90;99.90
16441;DHT22;8330;-33.858;151.184;2023-05-10T04:46:17;19.90;99.90
16441;DHT22;8330;-33.858;151.184;2023-05-10T04:49:04;19.90;99.90
16441;DHT22;8330;-33.858;151.184;2023-05-10T04:51:52;19.90;99.90
16441;DHT22;8330;-33.858;151.184;2023-05-10T04:54:39;19.80;99.90
16441;DHT22;8330;-33.858;151.184;2023-05-10T04:57:26;19.80;99.90
16441;DHT22;8330;-33.858;151.184;2023-05-10T05:00:14;19.70;99.90
16441;DHT22;8330;-33.858;151.184;2023-05-10T05:03:01;19.70;99.90
16441;DHT22;8330;-33.858;151.184;2023-05-10T05:05:48;19.80;99.90
16441;DHT22;8330;-33.858;151.184;2023-05-10T05:08:37;19.70;99.90
16441;DHT22;8330;-33.858;151.184;2023-05-10T05:11:23;19.70;99.90
16441;DHT22;8330;-33.858;151.184;2023-05-10T05:14:10;19.70;99.90
16441;DHT22;8330;-33.858;151.184;2023-05-10T05:16:57;19.70;99.90
16441;DHT22;8330;-33.858;151.184;2023-05-10T05:19:44;19.70;99.90
16441;DHT22;8330;-33.858;151.184;2023-05-10T05:22:31;19.80;99.90
16441;DHT22;8330;-33.858;151.184;2023-05-10T05:25:19;19.80;99.90
16441;DHT22;8330;-33.858;151.184;2023-05-10T05:28:06;19.80;99.90
16441;DHT22;8330;-33.858;151.184;2023-05-10T05:30:54;19.80;99.90
16441;DHT22;8330;-33.858;151.184;2023-05-10T05:33:41;19.70;99.90
16441;DHT22;8330;-33.858;151.184;2023-05-10T05:36:28;19.80;99.90
16441;DHT22;8330;-33.858;151.184;2023-05-10T05:39:15;19.80;99.90
16441;DHT22;8330;-33.858;151.184;2023-05-10T05:42:03;19.90;99.90
16441;DHT22;8330;-33.858;151.184;2023-05-10T05:44:50;19.90;99.90
16441;DHT22;8330;-33.858;151.184;2023-05-10T05:47:37;19.90;99.90
16441;DHT22;8330;-33.858;151.184;2023-05-10T05:50:24;19.90;99.90
16441;DHT22;8330;-33.858;151.184;2023-05-10T05:53:11;19.90;99.90
16441;DHT22;8330;-33.858;151.184;2023-05-10T05:55:59;19.90;99.90
16441;DHT22;8330;-33.858;151.184;2023-05-10T05:58:48;20.00;99.90
16441;DHT22;8330;-33.858;151.184;2023-05-10T06:01:34;20.10;99.90
16441;DHT22;8330;-33.858;151.184;2023-05-10T06:04:21;20.10;99.90
16441;DHT22;8330;-33.858;151.184;2023-05-10T06:07:08;20.20;99.90
16441;DHT22;8330;-33.858;151.184;2023-05-10T06:09:55;20.30;99.90
16441;DHT22;8330;-33.858;151.184;2023-05-10T06:12:42;20.40;99.90
16441;DHT22;8330;-33.858;151.184;2023-05-10T06:15:31;20.50;99.90
16441;DHT22;8330;-33.858;151.184;2023-05-10T06:18:18;20.60;99.90
16441;DHT22;8330;-33.858;151.184;2023-05-10T06:21:05;20.70;99.90
16441;DHT22;8330;-33.858;151.184;2023-05-10T06:23:52;20.80;99.90
16441;DHT22;8330;-33.858;151.184;2023-05-10T06:26:40;20.80;99.90
16441;DHT22;8330;-33.858;151.184;2023-05-10T06:29:27;20.70;99.90
16441;DHT22;8330;-33.858;151.184;2023-05-10T06:32:16;20.40;99.90
16441;DHT22;8330;-33.858;151.184;2023-05-10T06:35:03;20.20;99.90
16441;DHT22;8330;-33.858;151.184;2023-05-10T06:37:49;20.00;99.90
16441;DHT22;8330;-33.858;151.184;2023-05-10T06:40:36;19.90;99.90
16441;DHT22;8330;-33.858;151.184;2023-05-10T06:43:23;19.80;99.90
16441;DHT22;8330;-33.858;151.184;2023-05-10T06:46:10;19.70;99.90
16441;DHT22;8330;-33.858;151.184;2023-05-10T06:48:58;19.60;99.90
16441;DHT22;8330;-33.858;151.184;2023-05-10T06:51:45;19.50;99.90
16441;DHT22;8330;-33.858;151.184;2023-05-10T06:54:32;19.40;99.90
16441;DHT22;8330;-33.858;151.184;2023-05-10T06:57:20;19.30;99.90
16441;DHT22;8330;-33.858;151.184;2023-05-10T07:00:08;19.20;99.90
16441;DHT22;8330;-33.858;151.184;2023-05-10T08:19:03;17.90;99.90
16441;DHT22;8330;-33.858;151.184;2023-05-10T08:21:35;17.90;99.90
16441;DHT22;8330;-33.858;151.184;2023-05-10T08:24:06;17.90;99.90
16441;DHT22;8330;-33.858;151.184;2023-05-10T08:26:37;17.90;99.90
16441;DHT22;8330;-33.858;151.184;2023-05-10T08:29:11;17.90;99.90
16441;DHT22;8330;-33.858;151.184;2023-05-10T08:31:43;17.90;99.90
16441;DHT22;8330;-33.858;151.184;2023-05-10T08:34:16;17.90;99.90
16441;DHT22;8330;-33.858;151.184;2023-05-10T08:36:49;17.80;99.90
16441;DHT22;8330;-33.858;151.184;2023-05-10T08:39:20;17.80;99.90
16441;DHT22;8330;-33.858;151.184;2023-05-10T08:41:52;17.80;99.90
16441;DHT22;8330;-33.858;151.184;2023-05-10T08:44:25;17.80;99.90
16441;DHT22;8330;-33.858;151.184;2023-05-10T08:46:56;17.70;99.90
16441;DHT22;8330;-33.858;151.184;2023-05-10T08:49:32;17.70;99.90
16441;DHT22;8330;-33.858;151.184;2023-05-10T08:52:04;17.70;99.90
16441;DHT22;8330;-33.858;151.184;2023-05-10T08:54:36;17.60;99.90
16441;DHT22;8330;-33.858;151.184;2023-05-10T08:57:09;17.70;99.90
16441;DHT22;8330;-33.858;151.184;2023-05-10T08:59:40;17.70;99.90
16441;DHT22;8330;-33.858;151.184;2023-05-10T09:02:13;17.60;99.90
16441;DHT22;8330;-33.858;151.184;2023-05-10T09:04:46;17.60;99.90
16441;DHT22;8330;-33.858;151.184;2023-05-10T09:07:18;17.60;99.90
16441;DHT22;8330;-33.858;151.184;2023-05-10T09:09:50;17.60;99.90
16441;DHT22;8330;-33.858;151.184;2023-05-10T09:12:21;17.60;99.90
16441;DHT22;8330;-33.858;151.184;2023-05-10T09:14:53;17.60;99.90
16441;DHT22;8330;-33.858;151.184;2023-05-10T09:17:26;17.60;99.90
16441;DHT22;8330;-33.858;151.184;2023-05-10T09:20:02;17.60;99.90
16441;DHT22;8330;-33.858;151.184;2023-05-10T09:22:33;17.60;99.90
16441;DHT22;8330;-33.858;151.184;2023-05-10T09:25:06;17.50;99.90
16441;DHT22;8330;-33.858;151.184;2023-05-10T09:27:39;17.50;99.90
16441;DHT22;8330;-33.858;151.184;2023-05-10T09:30:11;17.50;99.90
16441;DHT22;8330;-33.858;151.184;2023-05-10T09:32:46;17.50;99.90
16441;DHT22;8330;-33.858;151.184;2023-05-10T09:35:21;17.50;99.90
16441;DHT22;8330;-33.858;151.184;2023-05-10T09:37:53;17.50;99.90
16441;DHT22;8330;-33.858;151.184;2023-05-10T09:40:25;17.50;99.90
16441;DHT22;8330;-33.858;151.184;2023-05-10T09:42:58;17.40;99.90
16441;DHT22;8330;-33.858;151.184;2023-05-10T09:45:29;17.40;99.90
16441;DHT22;8330;-33.858;151.184;2023-05-10T09:48:01;17.40;99.90
16441;DHT22;8330;-33.858;151.184;2023-05-10T09:50:35;17.40;99.90
16441;DHT22;8330;-33.858;151.184;2023-05-10T09:53:06;17.40;99.90
16441;DHT22;8330;-33.858;151.184;2023-05-10T09:55:41;17.40;99.90
16441;DHT22;8330;-33.858;151.184;2023-05-10T09:58:13;17.30;99.90
16441;DHT22;8330;-33.858;151.184;2023-05-10T10:00:45;17.40;99.90
16441;DHT22;8330;-33.858;151.184;2023-05-10T10:03:20;17.40;99.90
16441;DHT22;8330;-33.858;151.184;2023-05-10T10:05:54;17.30;99.90
16441;DHT22;8330;-33.858;151.184;2023-05-10T10:08:25;17.30;99.90
16441;DHT22;8330;-33.858;151.184;2023-05-10T10:10:56;17.30;99.90
16441;DHT22;8330;-33.858;151.184;2023-05-10T10:13:28;17.30;99.90
16441;DHT22;8330;-33.858;151.184;2023-05-10T10:16:00;17.30;99.90
16441;DHT22;8330;-33.858;151.184;2023-05-10T10:18:31;17.30;99.90
16441;DHT22;8330;-33.858;151.184;2023-05-10T10:21:08;17.30;99.90
16441;DHT22;8330;-33.858;151.184;2023-05-10T10:23:40;17.30;99.90
16441;DHT22;8330;-33.858;151.184;2023-05-10T10:26:11;17.30;99.90
16441;DHT22;8330;-33.858;151.184;2023-05-10T10:28:49;17.20;99.90
16441;DHT22;8330;-33.858;151.184;2023-05-10T10:31:31;17.20;99.90
16441;DHT22;8330;-33.858;151.184;2023-05-10T10:34:05;17.20;99.90
16441;DHT22;8330;-33.858;151.184;2023-05-10T10:36:45;17.20;99.90
16441;DHT22;8330;-33.858;151.184;2023-05-10T10:39:17;17.10;99.90
16441;DHT22;8330;-33.858;151.184;2023-05-10T10:41:52;17.10;99.90
16441;DHT22;8330;-33.858;151.184;2023-05-10T10:44:37;17.10;99.90
16441;DHT22;8330;-33.858;151.184;2023-05-10T10:47:29;17.10;99.90
16441;DHT22;8330;-33.858;151.184;2023-05-10T10:50:08;17.00;99.90
16441;DHT22;8330;-33.858;151.184;2023-05-10T10:52:43;17.00;99.90
16441;DHT22;8330;-33.858;151.184;2023-05-10T10:55:19;16.90;99.90
16441;DHT22;8330;-33.858;151.184;2023-05-10T10:57:52;17.00;99.90
16441;DHT22;8330;-33.858;151.184;2023-05-10T11:00:29;17.00;99.90
16441;DHT22;8330;-33.858;151.184;2023-05-10T11:03:03;17.00;99.90
16441;DHT22;8330;-33.858;151.184;2023-05-10T11:05:39;17.00;99.90
16441;DHT22;8330;-33.858;151.184;2023-05-10T11:08:20;17.00;99.90
16441;DHT22;8330;-33.858;151.184;2023-05-10T11:11:06;17.00;99.90
16441;DHT22;8330;-33.858;151.184;2023-05-10T11:13:42;17.00;99.90
16441;DHT22;8330;-33.858;151.184;2023-05-10T11:16:18;17.00;99.90
16441;DHT22;8330;-33.858;151.184;2023-05-10T11:18:58;16.90;99.90
16441;DHT22;8330;-33.858;151.184;2023-05-10T11:21:30;16.80;99.90
16441;DHT22;8330;-33.858;151.184;2023-05-10T11:24:03;16.80;99.90
16441;DHT22;8330;-33.858;151.184;2023-05-10T11:26:43;16.80;99.90
16441;DHT22;8330;-33.858;151.184;2023-05-10T11:29:15;16.80;99.90
16441;DHT22;8330;-33.858;151.184;2023-05-10T11:31:47;16.70;99.90
16441;DHT22;8330;-33.858;151.184;2023-05-10T11:34:26;16.70;99.90
16441;DHT22;8330;-33.858;151.184;2023-05-10T11:36:59;16.60;99.90
16441;DHT22;8330;-33.858;151.184;2023-05-10T11:39:32;16.60;99.90
16441;DHT22;8330;-33.858;151.184;2023-05-10T11:42:04;16.60;99.90
16441;DHT22;8330;-33.858;151.184;2023-05-10T11:44:37;16.60;99.90
16441;DHT22;8330;-33.858;151.184;2023-05-10T11:47:08;16.50;99.90
16441;DHT22;8330;-33.858;151.184;2023-05-10T11:49:39;16.50;99.90
16441;DHT22;8330;-33.858;151.184;2023-05-10T11:52:14;16.50;99.90
16441;DHT22;8330;-33.858;151.184;2023-05-10T11:54:52;16.40;99.90
16441;DHT22;8330;-33.858;151.184;2023-05-10T11:57:28;16.30;99.90
16441;DHT22;8330;-33.858;151.184;2023-05-10T11:59:59;16.30;99.90
16441;DHT22;8330;-33.858;151.184;2023-05-10T12:02:31;16.30;99.90
16441;DHT22;8330;-33.858;151.184;2023-05-10T12:05:03;16.30;99.90
16441;DHT22;8330;-33.858;151.184;2023-05-10T12:07:35;16.20;99.90
16441;DHT22;8330;-33.858;151.184;2023-05-10T12:10:10;16.20;99.90
16441;DHT22;8330;-33.858;151.184;2023-05-10T12:12:42;16.20;99.90
16441;DHT22;8330;-33.858;151.184;2023-05-10T12:15:18;16.20;99.90
16441;DHT22;8330;-33.858;151.184;2023-05-10T12:17:50;16.20;99.90
16441;DHT22;8330;-33.858;151.184;2023-05-10T12:20:26;16.20;99.90
16441;DHT22;8330;-33.858;151.184;2023-05-10T12:22:59;16.10;99.90
16441;DHT22;8330;-33.858;151.184;2023-05-10T12:25:34;16.10;99.90
16441;DHT22;8330;-33.858;151.184;2023-05-10T12:28:07;16.10;99.90
16441;DHT22;8330;-33.858;151.184;2023-05-10T12:30:39;16.10;99.90
16441;DHT22;8330;-33.858;151.184;2023-05-10T12:33:11;16.00;99.90
16441;DHT22;8330;-33.858;151.184;2023-05-10T12:35:46;16.10;99.90
16441;DHT22;8330;-33.858;151.184;2023-05-10T12:38:32;16.10;99.90
16441;DHT22;8330;-33.858;151.184;2023-05-10T12:41:06;16.00;99.90
16441;DHT22;8330;-33.858;151.184;2023-05-10T12:43:38;15.90;99.90
16441;DHT22;8330;-33.858;151.184;2023-05-10T12:46:10;16.00;99.90
16441;DHT22;8330;-33.858;151.184;2023-05-10T12:48:43;16.00;99.90
16441;DHT22;8330;-33.858;151.184;2023-05-10T12:51:14;15.90;99.90
16441;DHT22;8330;-33.858;151.184;2023-05-10T12:53:47;15.90;99.90
16441;DHT22;8330;-33.858;151.184;2023-05-10T12:56:22;15.90;99.90
16441;DHT22;8330;-33.858;151.184;2023-05-10T12:58:53;15.80;99.90
16441;DHT22;8330;-33.858;151.184;2023-05-10T13:01:24;15.80;99.90
16441;DHT22;8330;-33.858;151.184;2023-05-10T13:03:57;15.80;99.90
16441;DHT22;8330;-33.858;151.184;2023-05-10T13:06:30;15.80;99.90
16441;DHT22;8330;-33.858;151.184;2023-05-10T13:09:01;15.70;99.90
16441;DHT22;8330;-33.858;151.184;2023-05-10T13:11:34;15.70;99.90
16441;DHT22;8330;-33.858;151.184;2023-05-10T13:14:05;15.60;99.90
16441;DHT22;8330;-33.858;151.184;2023-05-10T13:16:36;15.60;99.90
16441;DHT22;8330;-33.858;151.184;2023-05-10T13:19:10;15.60;99.90
16441;DHT22;8330;-33.858;151.184;2023-05-10T13:21:41;15.50;99.90
16441;DHT22;8330;-33.858;151.184;2023-05-10T13:24:12;15.50;99.90
16441;DHT22;8330;-33.858;151.184;2023-05-10T13:26:46;15.50;99.90
16441;DHT22;8330;-33.858;151.184;2023-05-10T13:29:17;15.50;99.90
16441;DHT22;8330;-33.858;151.184;2023-05-10T13:31:50;15.50;99.90
16441;DHT22;8330;-33.858;151.184;2023-05-10T13:34:21;15.50;99.90
16441;DHT22;8330;-33.858;151.184;2023-05-10T13:36:55;15.50;99.90
16441;DHT22;8330;-33.858;151.184;2023-05-10T13:39:26;15.50;99.90
16441;DHT22;8330;-33.858;151.184;2023-05-10T13:42:03;15.50;99.90
16441;DHT22;8330;-33.858;151.184;2023-05-10T13:44:34;15.50;99.90
16441;DHT22;8330;-33.858;151.184;2023-05-10T13:47:06;15.50;99.90
16441;DHT22;8330;-33.858;151.184;2023-05-10T13:49:38;15.50;99.90
16441;DHT22;8330;-33.858;151.184;2023-05-10T13:52:09;15.50;99.90
16441;DHT22;8330;-33.858;151.184;2023-05-10T13:54:40;15.40;99.90
16441;DHT22;8330;-33.858;151.184;2023-05-10T13:57:13;15.40;99.90
16441;DHT22;8330;-33.858;151.184;2023-05-10T13:59:45;15.40;99.90
16441;DHT22;8330;-33.858;151.184;2023-05-10T14:02:17;15.30;99.90
16441;DHT22;8330;-33.858;151.184;2023-05-10T14:04:48;15.30;99.90
16441;DHT22;8330;-33.858;151.184;2023-05-10T14:07:19;15.30;99.90
16441;DHT22;8330;-33.858;151.184;2023-05-10T14:09:53;15.30;99.90
16441;DHT22;8330;-33.858;151.184;2023-05-10T14:12:26;15.30;99.90
16441;DHT22;8330;-33.858;151.184;2023-05-10T14:14:57;15.30;99.90
16441;DHT22;8330;-33.858;151.184;2023-05-10T14:17:28;15.20;99.90
16441;DHT22;8330;-33.858;151.184;2023-05-10T14:19:59;15.20;99.90
16441;DHT22;8330;-33.858;151.184;2023-05-10T14:22:31;15.20;99.90
16441;DHT22;8330;-33.858;151.184;2023-05-10T14:25:02;15.10;99.90
16441;DHT22;8330;-33.858;151.184;2023-05-10T14:27:36;15.20;99.90
16441;DHT22;8330;-33.858;151.184;2023-05-10T14:30:08;15.10;99.90
16441;DHT22;8330;-33.858;151.184;2023-05-10T14:32:39;15.10;99.90
16441;DHT22;8330;-33.858;151.184;2023-05-10T14:35:10;15.00;99.90
16441;DHT22;8330;-33.858;151.184;2023-05-10T14:37:41;15.00;99.90
16441;DHT22;8330;-33.858;151.184;2023-05-10T14:40:13;15.00;99.90
16441;DHT22;8330;-33.858;151.184;2023-05-10T14:42:47;15.00;99.90
16441;DHT22;8330;-33.858;151.184;2023-05-10T14:45:18;15.00;99.90
16441;DHT22;8330;-33.858;151.184;2023-05-10T14:47:49;14.80;99.90
16441;DHT22;8330;-33.858;151.184;2023-05-10T14:50:21;14.90;99.90
16441;DHT22;8330;-33.858;151.184;2023-05-10T14:52:53;14.90;99.90
16441;DHT22;8330;-33.858;151.184;2023-05-10T14:55:24;14.80;99.90
16441;DHT22;8330;-33.858;151.184;2023-05-10T14:57:57;14.80;99.90
16441;DHT22;8330;-33.858;151.184;2023-05-10T15:00:29;14.80;99.90
16441;DHT22;8330;-33.858;151.184;2023-05-10T15:03:00;14.80;99.90
16441;DHT22;8330;-33.858;151.184;2023-05-10T15:05:31;14.80;99.90
16441;DHT22;8330;-33.858;151.184;2023-05-10T15:08:02;14.80;99.90
16441;DHT22;8330;-33.858;151.184;2023-05-10T15:10:34;14.70;99.90
16441;DHT22;8330;-33.858;151.184;2023-05-10T15:13:07;14.70;99.90
16441;DHT22;8330;-33.858;151.184;2023-05-10T15:15:41;14.70;99.90
16441;DHT22;8330;-33.858;151.184;2023-05-10T15:18:12;14.70;99.90
16441;DHT22;8330;-33.858;151.184;2023-05-10T15:20:43;14.70;99.90
16441;DHT22;8330;-33.858;151.184;2023-05-10T15:23:14;14.70;99.90
16441;DHT22;8330;-33.858;151.184;2023-05-10T15:25:45;14.60;99.90
16441;DHT22;8330;-33.858;151.184;2023-05-10T15:28:19;14.60;99.90
16441;DHT22;8330;-33.858;151.184;2023-05-10T15:30:50;14.60;99.90
16441;DHT22;8330;-33.858;151.184;2023-05-10T15:33:22;14.60;99.90
16441;DHT22;8330;-33.858;151.184;2023-05-10T15:35:53;14.60;99.90
16441;DHT22;8330;-33.858;151.184;2023-05-10T15:38:24;14.60;99.90
16441;DHT22;8330;-33.858;151.184;2023-05-10T15:40:57;14.60;99.90
16441;DHT22;8330;-33.858;151.184;2023-05-10T15:43:32;14.60;99.90
16441;DHT22;8330;-33.858;151.184;2023-05-10T15:46:04;14.60;99.90
16441;DHT22;8330;-33.858;151.184;2023-05-10T15:48:35;14.60;99.90
16441;DHT22;8330;-33.858;151.184;2023-05-10T15:51:09;14.60;99.90
16441;DHT22;8330;-33.858;151.184;2023-05-10T15:53:41;14.60;99.90
16441;DHT22;8330;-33.858;151.184;2023-05-10T15:56:12;14.60;99.90
16441;DHT22;8330;-33.858;151.184;2023-05-10T15:58:45;14.50;99.90
16441;DHT22;8330;-33.858;151.184;2023-05-10T16:01:16;14.50;99.90
16441;DHT22;8330;-33.858;151.184;2023-05-10T16:03:47;14.50;99.90
16441;DHT22;8330;-33.858;151.184;2023-05-10T16:06:19;14.50;99.90
16441;DHT22;8330;-33.858;151.184;2023-05-10T16:08:50;14.60;99.90
16441;DHT22;8330;-33.858;151.184;2023-05-10T16:11:21;14.50;99.90
16441;DHT22;8330;-33.858;151.184;2023-05-10T16:13:55;14.50;99.90
16441;DHT22;8330;-33.858;151.184;2023-05-10T16:16:26;14.50;99.90
16441;DHT22;8330;-33.858;151.184;2023-05-10T16:18:57;14.60;99.90
16441;DHT22;8330;-33.858;151.184;2023-05-10T16:21:31;14.60;99.90
16441;DHT22;8330;-33.858;151.184;2023-05-10T16:24:03;14.60;99.90
16441;DHT22;8330;-33.858;151.184;2023-05-10T16:26:34;14.70;99.90
16441;DHT22;8330;-33.858;151.184;2023-05-10T16:29:09;14.70;99.90
16441;DHT22;8330;-33.858;151.184;2023-05-10T16:31:40;14.70;99.90
16441;DHT22;8330;-33.858;151.184;2023-05-10T16:34:12;14.80;99.90
16441;DHT22;8330;-33.858;151.184;2023-05-10T16:36:43;14.70;99.90
16441;DHT22;8330;-33.858;151.184;2023-05-10T16:39:15;14.70;99.90
16441;DHT22;8330;-33.858;151.184;2023-05-10T16:41:46;14.70;99.90
16441;DHT22;8330;-33.858;151.184;2023-05-10T16:44:19;14.80;99.90
16441;DHT22;8330;-33.858;151.184;2023-05-10T16:46:50;14.90;99.90
16441;DHT22;8330;-33.858;151.184;2023-05-10T16:49:21;14.70;99.90
16441;DHT22;8330;-33.858;151.184;2023-05-10T16:51:53;14.70;99.90
16441;DHT22;8330;-33.858;151.184;2023-05-10T16:54:25;14.70;99.90
16441;DHT22;8330;-33.858;151.184;2023-05-10T16:56:56;14.70;99.90
16441;DHT22;8330;-33.858;151.184;2023-05-10T16:59:30;14.70;99.90
16441;DHT22;8330;-33.858;151.184;2023-05-10T17:02:02;14.70;99.90
16441;DHT22;8330;-33.858;151.184;2023-05-10T17:04:33;14.60;99.90
16441;DHT22;8330;-33.858;151.184;2023-05-10T17:07:05;14.60;99.90
16441;DHT22;8330;-33.858;151.184;2023-05-10T17:09:41;14.60;99.90
16441;DHT22;8330;-33.858;151.184;2023-05-10T17:12:12;14.60;99.90
16441;DHT22;8330;-33.858;151.184;2023-05-10T17:14:46;14.60;99.90
16441;DHT22;8330;-33.858;151.184;2023-05-10T17:17:17;14.50;99.90
16441;DHT22;8330;-33.858;151.184;2023-05-10T17:19:48;14.50;99.90
16441;DHT22;8330;-33.858;151.184;2023-05-10T17:22:19;14.50;99.90
16441;DHT22;8330;-33.858;151.184;2023-05-10T17:24:50;14.50;99.90
16441;DHT22;8330;-33.858;151.184;2023-05-10T17:27:21;14.50;99.90
16441;DHT22;8330;-33.858;151.184;2023-05-10T17:29:58;14.50;99.90
16441;DHT22;8330;-33.858;151.184;2023-05-10T17:32:29;14.50;99.90
16441;DHT22;8330;-33.858;151.184;2023-05-10T17:35:01;14.60;99.90
16441;DHT22;8330;-33.858;151.184;2023-05-10T17:37:32;14.50;99.90
16441;DHT22;8330;-33.858;151.184;2023-05-10T17:40:03;14.60;99.90
16441;DHT22;8330;-33.858;151.184;2023-05-10T17:42:35;14.50;99.90
16441;DHT22;8330;-33.858;151.184;2023-05-10T17:45:09;14.40;99.90
16441;DHT22;8330;-33.858;151.184;2023-05-10T17:47:41;14.50;99.90
16441;DHT22;8330;-33.858;151.184;2023-05-10T17:50:12;14.50;99.90
16441;DHT22;8330;-33.858;151.184;2023-05-10T17:52:43;14.50;99.90
16441;DHT22;8330;-33.858;151.184;2023-05-10T17:55:15;14.50;99.90
16441;DHT22;8330;-33.858;151.184;2023-05-10T17:57:46;14.50;99.90
16441;DHT22;8330;-33.858;151.184;2023-05-10T18:00:20;14.50;99.90
16441;DHT22;8330;-33.858;151.184;2023-05-10T18:02:51;14.50;99.90
16441;DHT22;8330;-33.858;151.184;2023-05-10T18:05:22;14.50;99.90
16441;DHT22;8330;-33.858;151.184;2023-05-10T18:07:53;14.40;99.90
16441;DHT22;8330;-33.858;151.184;2023-05-10T18:10:25;14.40;99.90
16441;DHT22;8330;-33.858;151.184;2023-05-10T18:12:56;14.40;99.90
16441;DHT22;8330;-33.858;151.184;2023-05-10T18:15:29;14.30;99.90
16441;DHT22;8330;-33.858;151.184;2023-05-10T18:18:02;14.40;99.90
16441;DHT22;8330;-33.858;151.184;2023-05-10T18:20:33;14.30;99.90
16441;DHT22;8330;-33.858;151.184;2023-05-10T18:23:05;14.40;99.90
16441;DHT22;8330;-33.858;151.184;2023-05-10T18:25:36;14.40;99.90
16441;DHT22;8330;-33.858;151.184;2023-05-10T18:28:07;14.40;99.90
16441;DHT22;8330;-33.858;151.184;2023-05-10T18:30:40;14.40;99.90
16441;DHT22;8330;-33.858;151.184;2023-05-10T18:33:11;14.40;99.90
16441;DHT22;8330;-33.858;151.184;2023-05-10T18:35:42;14.40;99.90
16441;DHT22;8330;-33.858;151.184;2023-05-10T18:38:14;14.50;99.90
16441;DHT22;8330;-33.858;151.184;2023-05-10T18:40:45;14.50;99.90
16441;DHT22;8330;-33.858;151.184;2023-05-10T18:43:16;14.50;99.90
16441;DHT22;8330;-33.858;151.184;2023-05-10T18:45:49;14.40;99.90
16441;DHT22;8330;-33.858;151.184;2023-05-10T18:48:20;14.50;99.90
16441;DHT22;8330;-33.858;151.184;2023-05-10T18:50:51;14.40;99.90
16441;DHT22;8330;-33.858;151.184;2023-05-10T18:53:22;14.40;99.90
16441;DHT22;8330;-33.858;151.184;2023-05-10T18:55:57;14.50;99.90
16441;DHT22;8330;-33.858;151.184;2023-05-10T18:58:28;14.40;99.90
16441;DHT22;8330;-33.858;151.184;2023-05-10T19:01:02;14.40;99.90
16441;DHT22;8330;-33.858;151.184;2023-05-10T19:03:33;14.30;99.90
16441;DHT22;8330;-33.858;151.184;2023-05-10T19:06:05;14.40;99.90
16441;DHT22;8330;-33.858;151.184;2023-05-10T19:08:36;14.40;99.90
16441;DHT22;8330;-33.858;151.184;2023-05-10T19:11:07;14.40;99.90
16441;DHT22;8330;-33.858;151.184;2023-05-10T19:13:38;14.40;99.90
16441;DHT22;8330;-33.858;151.184;2023-05-10T19:16:13;14.40;99.90
16441;DHT22;8330;-33.858;151.184;2023-05-10T19:18:45;14.40;99.90
16441;DHT22;8330;-33.858;151.184;2023-05-10T19:21:16;14.40;99.90
16441;DHT22;8330;-33.858;151.184;2023-05-10T19:23:47;14.40;99.90
16441;DHT22;8330;-33.858;151.184;2023-05-10T19:26:18;14.30;99.90
16441;DHT22;8330;-33.858;151.184;2023-05-10T19:28:51;14.30;99.90
16441;DHT22;8330;-33.858;151.184;2023-05-10T19:31:24;14.30;99.90
16441;DHT22;8330;-33.858;151.184;2023-05-10T19:33:55;14.30;99.90
16441;DHT22;8330;-33.858;151.184;2023-05-10T19:36:26;14.30;99.90